createdAt,value
2023-10-31T00:00:26.178Z,10.60
2023-10-31T00:04:44.134Z,10.58
2023-10-31T00:08:42.174Z,10.56
2023-10-31T00:12:40.157Z,10.54
2023-10-31T00:16:38.244Z,10.49
2023-10-31T00:20:36.186Z,10.45
2023-10-31T00:24:34.223Z,10.41
2023-10-31T00:28:32.199Z,10.40
2023-10-31T00:32:30.114Z,10.38
2023-10-31T00:36:28.116Z,10.36
2023-10-31T00:40:26.122Z,10.30
2023-10-31T00:44:24.152Z,10.28
2023-10-31T00:48:22.155Z,10.25
2023-10-31T00:52:20.063Z,10.24
2023-10-31T00:56:18.083Z,10.20
2023-10-31T01:00:16.091Z,10.21
2023-10-31T01:04:14.091Z,10.26
2023-10-31T01:08:12.101Z,10.36
2023-10-31T01:12:10.099Z,10.46
2023-10-31T01:16:08.115Z,10.54
2023-10-31T01:20:06.186Z,10.63
2023-10-31T01:24:04.035Z,10.70
2023-10-31T01:28:02.059Z,10.76
2023-10-31T01:32:03.215Z,10.82
2023-10-31T01:36:03.059Z,10.89
2023-10-31T01:40:01.036Z,10.95
2023-10-31T01:43:59.091Z,11.00
2023-10-31T01:48:02.095Z,11.06
2023-10-31T01:52:01.064Z,11.11
2023-10-31T01:56:01.030Z,11.16
2023-10-31T01:59:59.037Z,11.21
2023-10-31T02:04:03.993Z,11.26
2023-10-31T02:08:02.072Z,11.31
2023-10-31T02:11:59.999Z,11.37
2023-10-31T02:15:58.038Z,11.41
2023-10-31T02:19:55.996Z,11.43
2023-10-31T02:23:54.105Z,11.44
2023-10-31T02:27:51.966Z,11.45
2023-10-31T02:31:50.132Z,11.46
2023-10-31T02:35:47.970Z,11.49
2023-10-31T02:39:45.996Z,11.53
2023-10-31T02:43:44.010Z,11.58
2023-10-31T02:47:41.992Z,11.64
2023-10-31T02:51:39.955Z,11.70
2023-10-31T02:55:38.022Z,11.76
2023-10-31T02:59:35.949Z,11.85
2023-10-31T03:03:34.124Z,11.94
2023-10-31T03:07:31.924Z,12.01
2023-10-31T03:11:39.949Z,12.06
2023-10-31T03:15:37.931Z,12.11
2023-10-31T03:19:35.949Z,12.14
2023-10-31T03:23:33.938Z,12.17
2023-10-31T03:27:31.965Z,12.22
2023-10-31T03:31:30.918Z,12.24
2023-10-31T03:35:28.901Z,12.28
2023-10-31T03:39:26.890Z,12.30
2023-10-31T03:43:24.963Z,12.31
2023-10-31T03:47:22.899Z,12.33
2023-10-31T03:51:20.924Z,12.33
2023-10-31T03:55:18.900Z,12.34
2023-10-31T03:59:16.895Z,12.36
2023-10-31T04:03:19.319Z,12.39
2023-10-31T04:07:19.872Z,12.43
2023-10-31T04:11:17.898Z,12.46
2023-10-31T04:15:15.868Z,12.48
2023-10-31T04:19:13.913Z,12.52
2023-10-31T04:23:12.973Z,12.56
2023-10-31T04:27:10.848Z,12.60
2023-10-31T04:31:08.943Z,12.75
2023-10-31T04:35:06.891Z,12.93
2023-10-31T04:39:04.847Z,13.06
2023-10-31T04:43:02.867Z,13.17
2023-10-31T04:47:00.930Z,13.30
2023-10-31T04:50:58.832Z,13.41
2023-10-31T04:54:56.885Z,13.50
2023-10-31T04:58:54.901Z,13.58
2023-10-31T05:02:52.935Z,13.65
2023-10-31T05:06:50.837Z,13.71
2023-10-31T05:10:48.975Z,13.78
2023-10-31T05:14:46.821Z,13.88
2023-10-31T05:18:44.870Z,13.95
2023-10-31T05:22:42.858Z,14.00
2023-10-31T05:26:40.810Z,14.05
2023-10-31T05:30:38.791Z,14.15
2023-10-31T05:34:36.814Z,14.26
2023-10-31T05:38:34.759Z,14.39
2023-10-31T05:42:32.787Z,14.50
2023-10-31T05:46:30.764Z,14.58
2023-10-31T05:50:28.754Z,14.69
2023-10-31T05:54:26.773Z,14.76
2023-10-31T05:58:24.767Z,14.86
2023-10-31T06:02:22.781Z,14.95
2023-10-31T06:06:20.790Z,15.03
2023-10-31T06:10:18.727Z,15.13
2023-10-31T06:14:16.789Z,15.25
2023-10-31T06:18:14.728Z,15.35
2023-10-31T06:22:12.806Z,15.45
2023-10-31T06:26:10.788Z,15.58
2023-10-31T06:30:20.100Z,15.70
2023-10-31T06:34:21.717Z,15.82
2023-10-31T06:38:19.746Z,15.96
2023-10-31T06:42:17.771Z,16.11
2023-10-31T06:46:15.756Z,16.26
2023-10-31T06:50:13.843Z,16.42
2023-10-31T06:54:11.715Z,16.58
2023-10-31T06:58:09.731Z,16.74
2023-10-31T07:01:47.902Z,16.86
2023-10-31T07:05:11.868Z,16.95
2023-10-31T07:08:36.021Z,17.01
2023-10-31T07:11:59.908Z,17.07
2023-10-31T07:15:23.849Z,17.10
2023-10-31T07:18:47.913Z,17.10
2023-10-31T07:22:12.244Z,17.11
2023-10-31T07:25:36.080Z,17.10
2023-10-31T07:29:00.015Z,17.09
2023-10-31T07:32:24.160Z,17.08
2023-10-31T07:35:48.111Z,17.07
2023-10-31T07:39:13.958Z,17.07
2023-10-31T07:42:37.781Z,17.07
2023-10-31T07:46:01.733Z,17.07
2023-10-31T07:49:25.753Z,17.05
2023-10-31T07:52:49.700Z,17.04
2023-10-31T07:56:18.522Z,17.02
2023-10-31T07:59:42.633Z,17.01
2023-10-31T08:03:06.634Z,17.04
2023-10-31T08:06:30.757Z,17.05
2023-10-31T08:09:54.630Z,17.08
2023-10-31T08:13:18.427Z,17.10
2023-10-31T08:16:42.566Z,17.13
2023-10-31T08:20:07.232Z,17.15
2023-10-31T08:23:32.106Z,17.17
2023-10-31T08:26:55.999Z,17.17
2023-10-31T08:30:21.602Z,17.18
2023-10-31T08:33:46.387Z,17.20
2023-10-31T08:37:10.915Z,17.23
2023-10-31T08:40:34.963Z,17.27
2023-10-31T08:43:59.599Z,17.29
2023-10-31T08:47:24.144Z,17.31
2023-10-31T08:50:48.143Z,17.34
2023-10-31T08:54:12.572Z,17.36
2023-10-31T08:57:36.762Z,17.38
2023-10-31T09:01:00.764Z,17.41
2023-10-31T09:04:24.821Z,17.46
2023-10-31T09:07:48.741Z,17.50
2023-10-31T09:11:12.897Z,17.55
2023-10-31T09:14:38.269Z,17.61
2023-10-31T09:18:02.721Z,17.62
2023-10-31T09:21:26.979Z,17.64
2023-10-31T09:24:51.546Z,17.64
2023-10-31T09:28:15.467Z,17.64
2023-10-31T09:31:39.452Z,17.63
2023-10-31T09:35:03.781Z,17.61
2023-10-31T09:38:29.206Z,17.61
2023-10-31T09:41:55.054Z,17.61
2023-10-31T09:45:20.009Z,17.60
2023-10-31T09:48:46.412Z,17.63
2023-10-31T09:52:12.176Z,17.66
2023-10-31T09:55:36.548Z,17.68
2023-10-31T09:59:01.664Z,17.69
2023-10-31T10:02:26.618Z,17.69
2023-10-31T10:05:51.891Z,17.69
2023-10-31T10:09:15.778Z,17.70
2023-10-31T10:12:39.755Z,17.70
2023-10-31T10:16:03.660Z,17.71
2023-10-31T10:19:27.704Z,17.71
2023-10-31T10:22:51.770Z,17.69
2023-10-31T10:26:15.809Z,17.69
2023-10-31T10:29:40.959Z,17.68
2023-10-31T10:33:05.635Z,17.65
2023-10-31T10:36:29.722Z,17.65
2023-10-31T10:39:56.709Z,17.65
2023-10-31T10:43:28.173Z,17.64
2023-10-31T10:46:56.778Z,17.63
2023-10-31T10:50:22.983Z,17.63
2023-10-31T10:53:52.377Z,17.67
2023-10-31T10:57:33.742Z,17.73
2023-10-31T11:01:00.596Z,17.79
2023-10-31T11:04:25.065Z,17.86
2023-10-31T11:07:49.846Z,17.92
2023-10-31T11:11:13.747Z,17.98
2023-10-31T11:14:38.260Z,18.10
2023-10-31T11:18:03.917Z,18.28
2023-10-31T11:21:31.015Z,18.47
2023-10-31T11:24:54.896Z,18.70
2023-10-31T11:28:20.034Z,18.98
2023-10-31T11:31:44.316Z,19.25
2023-10-31T11:35:09.036Z,19.46
2023-10-31T11:38:35.404Z,19.61
2023-10-31T11:41:59.374Z,19.70
2023-10-31T11:45:31.641Z,19.80
2023-10-31T11:48:57.560Z,19.93
2023-10-31T11:52:21.899Z,20.02
2023-10-31T11:55:47.958Z,20.07
2023-10-31T11:59:12.543Z,20.10
2023-10-31T12:02:36.538Z,20.08
2023-10-31T12:06:01.806Z,20.03
2023-10-31T12:09:25.744Z,20.00
2023-10-31T12:12:49.544Z,19.97
2023-10-31T12:16:14.221Z,19.94
2023-10-31T12:19:39.172Z,19.89
2023-10-31T12:23:06.408Z,19.77
2023-10-31T12:26:30.377Z,19.62
2023-10-31T12:30:03.839Z,19.52
2023-10-31T12:33:29.542Z,19.47
2023-10-31T12:36:55.407Z,19.43
2023-10-31T12:40:21.771Z,19.41
2023-10-31T12:43:45.873Z,19.40
2023-10-31T12:47:10.249Z,19.36
2023-10-31T12:50:37.971Z,19.32
2023-10-31T12:54:02.066Z,19.29
2023-10-31T12:57:26.039Z,19.22
2023-10-31T13:00:50.228Z,19.16
2023-10-31T13:04:14.361Z,19.12
2023-10-31T13:07:38.641Z,19.09
2023-10-31T13:11:03.201Z,19.09
2023-10-31T13:14:27.520Z,19.11
2023-10-31T13:17:55.011Z,19.15
2023-10-31T13:21:20.032Z,19.17
2023-10-31T13:24:44.074Z,19.22
2023-10-31T13:28:10.760Z,19.24
2023-10-31T13:31:34.803Z,19.24
2023-10-31T13:34:59.461Z,19.25
2023-10-31T13:38:23.531Z,19.28
2023-10-31T13:41:47.973Z,19.28
2023-10-31T13:45:11.949Z,19.24
2023-10-31T13:48:35.782Z,19.19
2023-10-31T13:51:59.718Z,19.12
2023-10-31T13:55:24.796Z,19.07
2023-10-31T13:58:49.324Z,19.04
2023-10-31T14:02:13.469Z,19.03
2023-10-31T14:05:37.431Z,19.05
2023-10-31T14:09:05.837Z,19.05
2023-10-31T14:12:30.151Z,18.99
2023-10-31T14:15:54.288Z,18.93
2023-10-31T14:19:19.033Z,18.83
2023-10-31T14:22:42.845Z,18.73
2023-10-31T14:26:07.174Z,18.61
2023-10-31T14:29:31.143Z,18.46
2023-10-31T14:33:16.361Z,18.33
2023-10-31T14:37:14.284Z,18.14
2023-10-31T14:41:12.401Z,17.93
2023-10-31T14:45:10.298Z,17.75
2023-10-31T14:49:08.285Z,17.58
2023-10-31T14:53:06.272Z,17.43
2023-10-31T14:57:04.240Z,17.28
2023-10-31T15:01:02.296Z,17.17
2023-10-31T15:05:00.311Z,17.07
2023-10-31T15:08:58.223Z,16.97
2023-10-31T15:12:56.326Z,16.87
2023-10-31T15:16:54.252Z,16.76
2023-10-31T15:20:52.239Z,16.63
2023-10-31T15:24:50.202Z,16.49
2023-10-31T15:28:49.219Z,16.35
2023-10-31T15:32:47.419Z,16.22
2023-10-31T15:36:45.216Z,16.12
2023-10-31T15:40:43.318Z,16.02
2023-10-31T15:44:41.240Z,15.94
2023-10-31T15:48:41.213Z,15.90
2023-10-31T15:52:39.233Z,15.86
2023-10-31T15:56:37.188Z,15.83
2023-10-31T16:00:35.191Z,15.79
2023-10-31T16:04:33.240Z,15.78
2023-10-31T16:08:31.267Z,15.79
2023-10-31T16:12:29.150Z,15.81
2023-10-31T16:16:27.295Z,15.82
2023-10-31T16:20:25.169Z,15.81
2023-10-31T16:24:23.239Z,15.79
2023-10-31T16:28:21.215Z,15.77
2023-10-31T16:32:19.651Z,15.76
2023-10-31T16:36:18.214Z,15.76
2023-10-31T16:40:16.173Z,15.75
2023-10-31T16:44:14.180Z,15.76
2023-10-31T16:48:12.194Z,15.76
2023-10-31T16:52:10.109Z,15.75
2023-10-31T16:56:08.183Z,15.75
2023-10-31T17:00:06.103Z,15.72
2023-10-31T17:04:04.319Z,15.65
2023-10-31T17:08:03.091Z,15.55
2023-10-31T17:12:01.140Z,15.41
2023-10-31T17:15:59.120Z,15.23
2023-10-31T17:19:57.179Z,15.03
2023-10-31T17:23:55.143Z,14.84
2023-10-31T17:27:53.178Z,14.67
2023-10-31T17:31:54.109Z,14.55
2023-10-31T17:35:52.134Z,14.44
2023-10-31T17:39:50.112Z,14.36
2023-10-31T17:43:48.129Z,14.30
2023-10-31T17:47:46.240Z,14.22
2023-10-31T17:51:44.088Z,14.14
2023-10-31T17:55:42.073Z,14.06
2023-10-31T17:59:40.106Z,13.98
2023-10-31T18:03:38.171Z,13.94
2023-10-31T18:07:36.096Z,13.89
2023-10-31T18:11:34.395Z,13.85
2023-10-31T18:15:32.105Z,13.82
2023-10-31T18:19:30.062Z,13.77
2023-10-31T18:23:28.070Z,13.73
2023-10-31T18:27:26.008Z,13.69
2023-10-31T18:31:24.080Z,13.65
2023-10-31T18:35:22.048Z,13.61
2023-10-31T18:39:20.012Z,13.59
2023-10-31T18:43:18.011Z,13.57
2023-10-31T18:47:16.023Z,13.56
2023-10-31T18:51:14.022Z,13.56
2023-10-31T18:55:12.033Z,13.55
2023-10-31T18:59:11.075Z,13.55
2023-10-31T19:03:09.167Z,13.53
2023-10-31T19:07:07.239Z,13.53
2023-10-31T19:11:06.435Z,13.51
2023-10-31T19:15:04.150Z,13.50
2023-10-31T19:19:02.004Z,13.48
2023-10-31T19:22:59.956Z,13.47
2023-10-31T19:26:58.986Z,13.46
2023-10-31T19:30:56.964Z,13.45
2023-10-31T19:34:55.029Z,13.44
2023-10-31T19:38:52.940Z,13.43
2023-10-31T19:42:50.966Z,13.42
2023-10-31T19:46:48.965Z,13.41
2023-10-31T19:50:46.994Z,13.39
2023-10-31T19:54:44.961Z,13.38
2023-10-31T19:58:42.962Z,13.37
2023-10-31T20:02:42.895Z,13.35
2023-10-31T20:06:41.946Z,13.32
2023-10-31T20:10:39.946Z,13.28
2023-10-31T20:14:59.288Z,13.24
2023-10-31T20:18:55.953Z,13.21
2023-10-31T20:22:53.960Z,13.18
2023-10-31T20:26:52.010Z,13.12
2023-10-31T20:30:50.071Z,13.05
2023-10-31T20:34:47.963Z,12.91
2023-10-31T20:38:46.091Z,12.73
2023-10-31T20:42:44.273Z,12.61
2023-10-31T20:46:41.997Z,12.53
2023-10-31T20:50:39.965Z,12.40
2023-10-31T20:54:37.897Z,12.17
2023-10-31T20:58:35.870Z,11.88
2023-10-31T21:02:34.913Z,11.64
2023-10-31T21:06:34.878Z,11.37
2023-10-31T21:10:32.911Z,11.10
2023-10-31T21:14:30.894Z,10.90
2023-10-31T21:18:28.921Z,10.78
2023-10-31T21:22:26.825Z,10.71
2023-10-31T21:26:24.863Z,10.68
2023-10-31T21:30:22.844Z,10.67
2023-10-31T21:34:20.876Z,10.64
2023-10-31T21:38:18.871Z,10.62
2023-10-31T21:42:16.892Z,10.63
2023-10-31T21:46:14.806Z,10.65
2023-10-31T21:50:12.841Z,10.65
2023-10-31T21:54:10.796Z,10.63
2023-10-31T21:58:08.796Z,10.59
2023-10-31T22:02:06.884Z,10.59
2023-10-31T22:06:04.840Z,10.59
2023-10-31T22:10:02.859Z,10.62
2023-10-31T22:14:00.809Z,10.66
2023-10-31T22:17:58.788Z,10.70
2023-10-31T22:21:56.799Z,10.76
2023-10-31T22:25:54.809Z,10.81
2023-10-31T22:29:52.862Z,10.87
2023-10-31T22:33:50.768Z,10.91
2023-10-31T22:37:28.314Z,10.96
2023-10-31T22:40:53.243Z,10.98
2023-10-31T22:44:17.205Z,10.99
2023-10-31T22:47:41.257Z,11.01
2023-10-31T22:51:05.988Z,11.02
2023-10-31T22:54:29.969Z,11.03
2023-10-31T22:57:53.953Z,11.03
2023-10-31T23:05:32.165Z,11.02
2023-10-31T23:08:57.205Z,11.01
2023-10-31T23:12:23.918Z,10.98
2023-10-31T23:15:47.803Z,10.97
2023-10-31T23:19:11.717Z,10.96
2023-10-31T23:22:36.175Z,10.95
2023-10-31T23:26:00.065Z,10.94
2023-10-31T23:29:24.865Z,10.92
2023-10-31T23:32:49.125Z,10.90
2023-10-31T23:36:13.240Z,10.89
2023-10-31T23:39:37.242Z,10.87
2023-10-31T23:43:01.248Z,10.86
2023-10-31T23:46:25.190Z,10.84
2023-10-31T23:49:49.109Z,10.81
2023-10-31T23:53:13.294Z,10.79
2023-10-31T23:56:37.172Z,10.76
